sensor_id;sensor_type;location;lat;lon;timestamp;temperature;humidity
14875;DHT22;7529;48.170;17.138;2022-09-13T00:00:38;12.80;63.50
14875;DHT22;7529;48.170;17.138;2022-09-13T00:04:51;12.80;63.70
14875;DHT22;7529;48.170;17.138;2022-09-13T00:09:02;12.70;64.00
14875;DHT22;7529;48.170;17.138;2022-09-13T00:13:15;12.70;64.30
14875;DHT22;7529;48.170;17.138;2022-09-13T00:17:28;12.70;64.50
14875;DHT22;7529;48.170;17.138;2022-09-13T00:21:39;12.60;64.60
14875;DHT22;7529;48.170;17.138;2022-09-13T00:25:51;12.40;65.00
14875;DHT22;7529;48.170;17.138;2022-09-13T00:30:06;12.40;65.30
14875;DHT22;7529;48.170;17.138;2022-09-13T00:34:18;12.40;65.50
14875;DHT22;7529;48.170;17.138;2022-09-13T00:38:30;12.30;65.50
14875;DHT22;7529;48.170;17.138;2022-09-13T00:42:42;12.20;66.70
14875;DHT22;7529;48.170;17.138;2022-09-13T00:46:53;12.20;66.40
14875;DHT22;7529;48.170;17.138;2022-09-13T00:51:06;12.10;66.70
14875;DHT22;7529;48.170;17.138;2022-09-13T00:55:31;12.10;67.00
14875;DHT22;7529;48.170;17.138;2022-09-13T00:59:52;12.10;67.50
14875;DHT22;7529;48.170;17.138;2022-09-13T01:04:24;12.10;67.60
14875;DHT22;7529;48.170;17.138;2022-09-13T01:08:39;12.00;67.80
14875;DHT22;7529;48.170;17.138;2022-09-13T01:13:08;11.90;68.00
14875;DHT22;7529;48.170;17.138;2022-09-13T01:17:29;11.80;68.90
14875;DHT22;7529;48.170;17.138;2022-09-13T01:51:41;11.30;70.80
14875;DHT22;7529;48.170;17.138;2022-09-13T01:56:03;11.40;70.90
14875;DHT22;7529;48.170;17.138;2022-09-13T02:00:17;11.30;71.10
14875;DHT22;7529;48.170;17.138;2022-09-13T02:04:34;11.20;71.50
14875;DHT22;7529;48.170;17.138;2022-09-13T02:08:56;11.30;72.10
14875;DHT22;7529;48.170;17.138;2022-09-13T02:13:30;11.30;72.10
14875;DHT22;7529;48.170;17.138;2022-09-13T02:18:11;11.20;72.30
14875;DHT22;7529;48.170;17.138;2022-09-13T02:22:32;11.30;73.30
14875;DHT22;7529;48.170;17.138;2022-09-13T02:26:47;11.20;72.80
14875;DHT22;7529;48.170;17.138;2022-09-13T02:31:03;11.20;72.90
14875;DHT22;7529;48.170;17.138;2022-09-13T02:35:19;11.10;73.40
14875;DHT22;7529;48.170;17.138;2022-09-13T02:39:36;11.10;74.00
14875;DHT22;7529;48.170;17.138;2022-09-13T02:43:54;11.10;74.20
14875;DHT22;7529;48.170;17.138;2022-09-13T02:48:29;11.10;74.60
14875;DHT22;7529;48.170;17.138;2022-09-13T02:57:39;11.10;74.90
14875;DHT22;7529;48.170;17.138;2022-09-13T03:02:13;11.10;75.00
14875;DHT22;7529;48.170;17.138;2022-09-13T03:06:27;11.10;75.90
14875;DHT22;7529;48.170;17.138;2022-09-13T03:20:17;11.10;76.60
14875;DHT22;7529;48.170;17.138;2022-09-13T03:24:40;11.00;76.40
14875;DHT22;7529;48.170;17.138;2022-09-13T03:34:14;11.10;77.90
14875;DHT22;7529;48.170;17.138;2022-09-13T03:38:31;11.00;77.50
14875;DHT22;7529;48.170;17.138;2022-09-13T03:42:59;11.00;78.00
14875;DHT22;7529;48.170;17.138;2022-09-13T03:47:24;11.00;78.60
14875;DHT22;7529;48.170;17.138;2022-09-13T03:51:38;11.00;78.30
14875;DHT22;7529;48.170;17.138;2022-09-13T03:55:51;10.90;78.60
14875;DHT22;7529;48.170;17.138;2022-09-13T04:00:03;10.80;79.10
14875;DHT22;7529;48.170;17.138;2022-09-13T04:04:22;10.70;79.60
14875;DHT22;7529;48.170;17.138;2022-09-13T04:08:34;10.70;80.00
14875;DHT22;7529;48.170;17.138;2022-09-13T04:12:45;10.80;80.30
14875;DHT22;7529;48.170;17.138;2022-09-13T04:16:57;10.80;80.50
14875;DHT22;7529;48.170;17.138;2022-09-13T04:21:09;10.80;80.80
14875;DHT22;7529;48.170;17.138;2022-09-13T04:25:21;10.80;81.30
14875;DHT22;7529;48.170;17.138;2022-09-13T04:29:33;10.80;81.60
14875;DHT22;7529;48.170;17.138;2022-09-13T04:33:44;10.80;81.80
14875;DHT22;7529;48.170;17.138;2022-09-13T04:37:56;10.80;82.10
14875;DHT22;7529;48.170;17.138;2022-09-13T04:42:08;10.80;82.40
14875;DHT22;7529;48.170;17.138;2022-09-13T04:46:21;10.90;82.80
14875;DHT22;7529;48.170;17.138;2022-09-13T04:50:33;11.00;82.90
14875;DHT22;7529;48.170;17.138;2022-09-13T04:54:46;11.00;83.30
14875;DHT22;7529;48.170;17.138;2022-09-13T04:58:58;11.20;83.70
14875;DHT22;7529;48.170;17.138;2022-09-13T05:03:09;11.40;83.50
14875;DHT22;7529;48.170;17.138;2022-09-13T05:07:21;11.50;83.00
14875;DHT22;7529;48.170;17.138;2022-09-13T05:11:33;11.60;82.90
14875;DHT22;7529;48.170;17.138;2022-09-13T05:15:45;11.80;82.80
14875;DHT22;7529;48.170;17.138;2022-09-13T05:19:57;11.90;82.70
14875;DHT22;7529;48.170;17.138;2022-09-13T05:24:10;12.00;82.40
14875;DHT22;7529;48.170;17.138;2022-09-13T05:28:25;12.00;83.00
14875;DHT22;7529;48.170;17.138;2022-09-13T05:32:38;12.00;82.30
14875;DHT22;7529;48.170;17.138;2022-09-13T05:36:51;12.00;82.00
14875;DHT22;7529;48.170;17.138;2022-09-13T05:41:03;12.10;82.50
14875;DHT22;7529;48.170;17.138;2022-09-13T05:45:16;12.10;81.60
14875;DHT22;7529;48.170;17.138;2022-09-13T05:49:27;12.20;81.50
14875;DHT22;7529;48.170;17.138;2022-09-13T05:53:41;12.30;81.20
14875;DHT22;7529;48.170;17.138;2022-09-13T05:57:53;12.50;81.10
14875;DHT22;7529;48.170;17.138;2022-09-13T06:02:08;12.80;80.60
14875;DHT22;7529;48.170;17.138;2022-09-13T06:06:21;12.90;80.20
14875;DHT22;7529;48.170;17.138;2022-09-13T06:10:36;13.10;79.70
14875;DHT22;7529;48.170;17.138;2022-09-13T06:14:47;13.20;79.40
14875;DHT22;7529;48.170;17.138;2022-09-13T06:18:59;13.20;79.00
14875;DHT22;7529;48.170;17.138;2022-09-13T06:23:11;13.40;78.90
14875;DHT22;7529;48.170;17.138;2022-09-13T06:27:22;13.70;78.50
14875;DHT22;7529;48.170;17.138;2022-09-13T06:31:34;14.10;77.80
14875;DHT22;7529;48.170;17.138;2022-09-13T06:35:50;14.40;77.20
14875;DHT22;7529;48.170;17.138;2022-09-13T06:40:02;14.60;76.70
14875;DHT22;7529;48.170;17.138;2022-09-13T06:44:16;15.00;76.20
14875;DHT22;7529;48.170;17.138;2022-09-13T06:48:32;15.50;75.40
14875;DHT22;7529;48.170;17.138;2022-09-13T06:52:46;15.90;74.40
14875;DHT22;7529;48.170;17.138;2022-09-13T06:56:58;16.40;73.40
14875;DHT22;7529;48.170;17.138;2022-09-13T07:01:18;16.70;72.60
14875;DHT22;7529;48.170;17.138;2022-09-13T07:05:35;17.00;71.70
14875;DHT22;7529;48.170;17.138;2022-09-13T07:09:47;17.30;70.80
14875;DHT22;7529;48.170;17.138;2022-09-13T07:13:59;17.50;70.30
14875;DHT22;7529;48.170;17.138;2022-09-13T07:18:12;17.70;69.70
14875;DHT22;7529;48.170;17.138;2022-09-13T07:22:23;17.80;69.10
14875;DHT22;7529;48.170;17.138;2022-09-13T07:26:38;17.70;69.30
14875;DHT22;7529;48.170;17.138;2022-09-13T07:30:49;17.90;68.10
14875;DHT22;7529;48.170;17.138;2022-09-13T07:35:01;18.30;67.50
14875;DHT22;7529;48.170;17.138;2022-09-13T07:39:13;18.50;67.00
14875;DHT22;7529;48.170;17.138;2022-09-13T07:43:26;18.50;66.40
14875;DHT22;7529;48.170;17.138;2022-09-13T08:04:28;28.00;57.40
14875;DHT22;7529;48.170;17.138;2022-09-13T11:34:25;32.30;52.00
14875;DHT22;7529;48.170;17.138;2022-09-13T11:39:08;42.70;25.00
14875;DHT22;7529;48.170;17.138;2022-09-13T12:51:01;45.90;24.70
14875;DHT22;7529;48.170;17.138;2022-09-13T12:55:35;46.90;22.70
14875;DHT22;7529;48.170;17.138;2022-09-13T13:04:28;47.60;23.00
14875;DHT22;7529;48.170;17.138;2022-09-13T13:08:49;46.90;22.60
14875;DHT22;7529;48.170;17.138;2022-09-13T13:13:14;47.20;22.50
14875;DHT22;7529;48.170;17.138;2022-09-13T13:17:52;46.90;22.50
14875;DHT22;7529;48.170;17.138;2022-09-13T13:26:57;47.00;22.50
14875;DHT22;7529;48.170;17.138;2022-09-13T13:53:18;45.90;22.70
14875;DHT22;7529;48.170;17.138;2022-09-13T14:32:46;44.00;23.00
14875;DHT22;7529;48.170;17.138;2022-09-13T14:37:03;38.70;23.80
14875;DHT22;7529;48.170;17.138;2022-09-13T14:41:19;35.10;24.70
14875;DHT22;7529;48.170;17.138;2022-09-13T14:45:35;33.20;25.30
14875;DHT22;7529;48.170;17.138;2022-09-13T14:50:15;32.10;25.90
14875;DHT22;7529;48.170;17.138;2022-09-13T14:59:00;30.40;26.70
14875;DHT22;7529;48.170;17.138;2022-09-13T15:03:17;30.10;27.40
14875;DHT22;7529;48.170;17.138;2022-09-13T15:07:30;32.30;27.20
14875;DHT22;7529;48.170;17.138;2022-09-13T15:16:46;37.90;25.20
14875;DHT22;7529;48.170;17.138;2022-09-13T15:21:15;35.80;25.60
14875;DHT22;7529;48.170;17.138;2022-09-13T15:25:28;35.30;26.00
14875;DHT22;7529;48.170;17.138;2022-09-13T15:29:40;35.10;26.00
14875;DHT22;7529;48.170;17.138;2022-09-13T15:38:30;30.70;27.50
14875;DHT22;7529;48.170;17.138;2022-09-13T15:42:46;29.70;27.70
14875;DHT22;7529;48.170;17.138;2022-09-13T15:47:00;29.00;28.40
14875;DHT22;7529;48.170;17.138;2022-09-13T15:51:14;28.00;28.80
14875;DHT22;7529;48.170;17.138;2022-09-13T15:55:30;27.40;29.10
14875;DHT22;7529;48.170;17.138;2022-09-13T15:59:41;26.70;29.50
14875;DHT22;7529;48.170;17.138;2022-09-13T16:03:53;26.20;29.70
14875;DHT22;7529;48.170;17.138;2022-09-13T16:08:05;25.70;30.20
14875;DHT22;7529;48.170;17.138;2022-09-13T16:12:18;25.30;30.20
14875;DHT22;7529;48.170;17.138;2022-09-13T16:16:33;25.00;30.50
14875;DHT22;7529;48.170;17.138;2022-09-13T16:20:51;24.80;30.60
14875;DHT22;7529;48.170;17.138;2022-09-13T16:25:04;24.60;30.70
14875;DHT22;7529;48.170;17.138;2022-09-13T16:29:17;24.40;31.00
14875;DHT22;7529;48.170;17.138;2022-09-13T16:33:30;24.30;31.50
14875;DHT22;7529;48.170;17.138;2022-09-13T16:37:42;24.10;31.50
14875;DHT22;7529;48.170;17.138;2022-09-13T16:41:55;24.00;31.60
14875;DHT22;7529;48.170;17.138;2022-09-13T16:46:09;23.90;32.10
14875;DHT22;7529;48.170;17.138;2022-09-13T16:50:23;23.70;32.50
14875;DHT22;7529;48.170;17.138;2022-09-13T16:54:35;23.60;32.90
14875;DHT22;7529;48.170;17.138;2022-09-13T16:58:48;23.30;33.20
14875;DHT22;7529;48.170;17.138;2022-09-13T17:03:00;23.20;33.70
14875;DHT22;7529;48.170;17.138;2022-09-13T17:07:12;23.10;34.00
14875;DHT22;7529;48.170;17.138;2022-09-13T17:11:27;23.00;34.30
14875;DHT22;7529;48.170;17.138;2022-09-13T17:15:41;22.90;34.60
14875;DHT22;7529;48.170;17.138;2022-09-13T17:19:53;22.90;34.80
14875;DHT22;7529;48.170;17.138;2022-09-13T17:24:04;22.90;34.80
14875;DHT22;7529;48.170;17.138;2022-09-13T17:28:18;22.80;34.70
14875;DHT22;7529;48.170;17.138;2022-09-13T17:32:29;22.90;34.80
14875;DHT22;7529;48.170;17.138;2022-09-13T17:36:42;22.80;34.80
14875;DHT22;7529;48.170;17.138;2022-09-13T17:41:08;22.80;35.00
14875;DHT22;7529;48.170;17.138;2022-09-13T17:45:21;22.80;35.50
14875;DHT22;7529;48.170;17.138;2022-09-13T17:49:33;22.80;35.60
14875;DHT22;7529;48.170;17.138;2022-09-13T17:53:50;22.80;35.50
14875;DHT22;7529;48.170;17.138;2022-09-13T17:58:05;22.80;35.70
14875;DHT22;7529;48.170;17.138;2022-09-13T18:02:18;22.70;36.30
14875;DHT22;7529;48.170;17.138;2022-09-13T18:06:33;22.70;36.10
14875;DHT22;7529;48.170;17.138;2022-09-13T18:10:45;22.70;36.20
14875;DHT22;7529;48.170;17.138;2022-09-13T18:14:57;22.50;36.60
14875;DHT22;7529;48.170;17.138;2022-09-13T18:19:09;22.40;36.90
14875;DHT22;7529;48.170;17.138;2022-09-13T18:23:21;22.30;37.30
14875;DHT22;7529;48.170;17.138;2022-09-13T18:27:35;22.20;37.50
14875;DHT22;7529;48.170;17.138;2022-09-13T18:31:46;22.10;37.80
14875;DHT22;7529;48.170;17.138;2022-09-13T18:36:02;21.90;38.10
14875;DHT22;7529;48.170;17.138;2022-09-13T18:40:15;21.80;38.50
14875;DHT22;7529;48.170;17.138;2022-09-13T18:44:27;21.80;38.60
14875;DHT22;7529;48.170;17.138;2022-09-13T18:48:42;21.80;38.80
14875;DHT22;7529;48.170;17.138;2022-09-13T18:52:56;21.70;39.10
14875;DHT22;7529;48.170;17.138;2022-09-13T18:57:07;21.70;39.30
14875;DHT22;7529;48.170;17.138;2022-09-13T19:01:22;21.60;39.50
14875;DHT22;7529;48.170;17.138;2022-09-13T19:05:36;21.60;39.70
14875;DHT22;7529;48.170;17.138;2022-09-13T19:09:49;21.50;39.80
14875;DHT22;7529;48.170;17.138;2022-09-13T19:14:01;21.40;40.10
14875;DHT22;7529;48.170;17.138;2022-09-13T19:18:14;21.30;40.30
14875;DHT22;7529;48.170;17.138;2022-09-13T19:22:25;21.40;40.50
14875;DHT22;7529;48.170;17.138;2022-09-13T19:26:38;21.40;40.70
14875;DHT22;7529;48.170;17.138;2022-09-13T19:30:50;21.30;40.90
14875;DHT22;7529;48.170;17.138;2022-09-13T19:35:02;21.20;41.20
14875;DHT22;7529;48.170;17.138;2022-09-13T19:39:14;21.00;41.40
14875;DHT22;7529;48.170;17.138;2022-09-13T19:43:28;20.70;41.80
14875;DHT22;7529;48.170;17.138;2022-09-13T19:47:41;20.50;42.30
14875;DHT22;7529;48.170;17.138;2022-09-13T19:51:53;20.30;42.60
14875;DHT22;7529;48.170;17.138;2022-09-13T19:56:06;20.10;42.80
14875;DHT22;7529;48.170;17.138;2022-09-13T20:00:19;20.10;43.50
14875;DHT22;7529;48.170;17.138;2022-09-13T20:04:31;20.20;43.20
14875;DHT22;7529;48.170;17.138;2022-09-13T20:08:43;20.00;43.40
14875;DHT22;7529;48.170;17.138;2022-09-13T20:12:55;19.80;43.80
14875;DHT22;7529;48.170;17.138;2022-09-13T20:17:07;19.50;44.10
14875;DHT22;7529;48.170;17.138;2022-09-13T20:21:19;19.40;44.40
14875;DHT22;7529;48.170;17.138;2022-09-13T20:25:31;19.20;44.60
14875;DHT22;7529;48.170;17.138;2022-09-13T20:29:42;19.00;45.00
14875;DHT22;7529;48.170;17.138;2022-09-13T20:33:55;18.80;45.30
14875;DHT22;7529;48.170;17.138;2022-09-13T20:38:07;18.70;45.60
14875;DHT22;7529;48.170;17.138;2022-09-13T20:42:19;18.60;45.90
14875;DHT22;7529;48.170;17.138;2022-09-13T20:46:31;18.50;46.20
14875;DHT22;7529;48.170;17.138;2022-09-13T20:50:43;18.50;46.50
14875;DHT22;7529;48.170;17.138;2022-09-13T20:54:55;18.40;46.70
14875;DHT22;7529;48.170;17.138;2022-09-13T20:59:07;18.30;46.90
14875;DHT22;7529;48.170;17.138;2022-09-13T21:03:20;18.30;47.10
14875;DHT22;7529;48.170;17.138;2022-09-13T21:07:31;18.30;47.30
14875;DHT22;7529;48.170;17.138;2022-09-13T21:12:01;18.40;47.40
14875;DHT22;7529;48.170;17.138;2022-09-13T21:16:22;18.30;47.40
14875;DHT22;7529;48.170;17.138;2022-09-13T21:20:35;18.40;47.80
14875;DHT22;7529;48.170;17.138;2022-09-13T21:24:47;18.40;47.70
14875;DHT22;7529;48.170;17.138;2022-09-13T21:28:58;18.40;47.90
14875;DHT22;7529;48.170;17.138;2022-09-13T21:33:10;18.40;48.10
14875;DHT22;7529;48.170;17.138;2022-09-13T21:37:22;18.40;48.40
14875;DHT22;7529;48.170;17.138;2022-09-13T21:41:34;18.20;48.50
14875;DHT22;7529;48.170;17.138;2022-09-13T21:45:46;18.00;49.00
14875;DHT22;7529;48.170;17.138;2022-09-13T21:50:00;17.90;49.20
14875;DHT22;7529;48.170;17.138;2022-09-13T21:54:15;17.70;49.50
14875;DHT22;7529;48.170;17.138;2022-09-13T21:58:28;17.60;49.80
14875;DHT22;7529;48.170;17.138;2022-09-13T22:02:40;17.50;50.00
14875;DHT22;7529;48.170;17.138;2022-09-13T22:06:52;17.40;50.80
14875;DHT22;7529;48.170;17.138;2022-09-13T22:11:09;17.40;50.30
14875;DHT22;7529;48.170;17.138;2022-09-13T22:15:23;17.40;50.60
14875;DHT22;7529;48.170;17.138;2022-09-13T22:19:34;17.40;50.70
14875;DHT22;7529;48.170;17.138;2022-09-13T22:23:46;17.30;51.00
14875;DHT22;7529;48.170;17.138;2022-09-13T22:27:57;17.10;51.30
14875;DHT22;7529;48.170;17.138;2022-09-13T22:32:09;16.90;51.50
14875;DHT22;7529;48.170;17.138;2022-09-13T22:36:22;16.70;51.70
14875;DHT22;7529;48.170;17.138;2022-09-13T22:40:34;16.60;52.00
14875;DHT22;7529;48.170;17.138;2022-09-13T22:44:45;16.50;52.20
14875;DHT22;7529;48.170;17.138;2022-09-13T22:48:57;16.50;52.50
14875;DHT22;7529;48.170;17.138;2022-09-13T22:53:09;16.50;52.80
14875;DHT22;7529;48.170;17.138;2022-09-13T22:57:21;16.30;52.90
14875;DHT22;7529;48.170;17.138;2022-09-13T23:01:33;16.20;53.20
14875;DHT22;7529;48.170;17.138;2022-09-13T23:05:49;16.10;53.40
14875;DHT22;7529;48.170;17.138;2022-09-13T23:10:04;16.00;53.80
14875;DHT22;7529;48.170;17.138;2022-09-13T23:14:16;16.00;53.90
14875;DHT22;7529;48.170;17.138;2022-09-13T23:18:30;16.00;54.10
14875;DHT22;7529;48.170;17.138;2022-09-13T23:22:42;16.00;54.40
14875;DHT22;7529;48.170;17.138;2022-09-13T23:26:53;15.90;54.50
14875;DHT22;7529;48.170;17.138;2022-09-13T23:31:17;15.80;54.80
14875;DHT22;7529;48.170;17.138;2022-09-13T23:35:30;15.80;55.20
14875;DHT22;7529;48.170;17.138;2022-09-13T23:39:42;15.80;55.20
14875;DHT22;7529;48.170;17.138;2022-09-13T23:43:53;15.80;55.50
14875;DHT22;7529;48.170;17.138;2022-09-13T23:48:05;15.80;55.60
14875;DHT22;7529;48.170;17.138;2022-09-13T23:52:16;15.80;55.70
14875;DHT22;7529;48.170;17.138;2022-09-13T23:56:29;15.80;55.90
